createdAt,value
2023-05-03T00:01:22.280Z,8.20
2023-05-03T00:03:49.710Z,8.47
2023-05-03T00:06:16.493Z,7.65
2023-05-03T00:08:42.921Z,7.42
2023-05-03T00:11:09.360Z,7.64
2023-05-03T00:13:35.781Z,7.73
2023-05-03T00:16:02.195Z,8.20
2023-05-03T00:18:28.592Z,8.12
2023-05-03T00:20:54.983Z,8.11
2023-05-03T00:23:21.416Z,8.40
2023-05-03T00:25:47.945Z,8.48
2023-05-03T00:28:14.345Z,9.33
2023-05-03T00:30:40.934Z,8.43
2023-05-03T00:33:07.449Z,8.17
2023-05-03T00:35:34.952Z,8.31
2023-05-03T00:38:01.350Z,7.77
2023-05-03T00:40:27.730Z,7.29
2023-05-03T00:42:54.278Z,7.91
2023-05-03T00:45:20.682Z,7.83
2023-05-03T00:47:47.143Z,7.54
2023-05-03T00:50:14.123Z,7.56
2023-05-03T00:52:40.527Z,7.90
2023-05-03T00:55:07.019Z,7.69
2023-05-03T00:57:33.428Z,7.63
2023-05-03T00:59:59.875Z,7.63
2023-05-03T01:02:26.471Z,7.30
2023-05-03T01:04:52.900Z,7.72
2023-05-03T01:07:19.309Z,7.96
2023-05-03T01:09:45.717Z,7.75
2023-05-03T01:12:12.216Z,7.77
2023-05-03T01:14:38.912Z,7.97
2023-05-03T01:17:05.301Z,8.14
2023-05-03T01:19:31.762Z,8.13
2023-05-03T01:21:58.177Z,7.66
2023-05-03T01:24:24.584Z,8.03
2023-05-03T01:26:50.973Z,7.87
2023-05-03T01:29:17.378Z,7.67
2023-05-03T01:31:43.883Z,8.07
2023-05-03T01:34:10.292Z,8.23
2023-05-03T01:36:36.833Z,8.52
2023-05-03T01:39:03.227Z,8.32
2023-05-03T01:41:29.654Z,8.28
2023-05-03T01:43:56.033Z,8.78
2023-05-03T01:46:22.538Z,10.02
2023-05-03T01:48:49.044Z,9.72
2023-05-03T01:51:17.540Z,9.58
2023-05-03T01:53:43.961Z,9.56
2023-05-03T01:56:12.438Z,9.84
2023-05-03T01:58:38.968Z,9.84
2023-05-03T02:01:05.432Z,9.79
2023-05-03T02:03:31.904Z,9.85
2023-05-03T02:05:58.306Z,9.96
2023-05-03T02:08:24.732Z,10.23
2023-05-03T02:10:51.127Z,10.92
2023-05-03T02:13:17.552Z,10.26
2023-05-03T02:15:43.968Z,11.00
2023-05-03T02:18:10.352Z,11.14
2023-05-03T02:20:36.986Z,11.37
2023-05-03T02:23:03.419Z,11.36
2023-05-03T02:25:29.814Z,12.07
2023-05-03T02:27:57.534Z,12.52
2023-05-03T02:30:24.032Z,12.56
2023-05-03T02:32:50.451Z,12.74
2023-05-03T02:35:16.883Z,12.74
2023-05-03T02:37:43.275Z,13.18
2023-05-03T02:40:09.759Z,13.39
2023-05-03T02:42:36.202Z,13.62
2023-05-03T02:45:02.700Z,13.31
2023-05-03T02:47:29.205Z,13.13
2023-05-03T02:49:55.752Z,13.85
2023-05-03T02:52:22.222Z,13.73
2023-05-03T02:54:48.640Z,13.82
2023-05-03T02:57:15.035Z,13.98
2023-05-03T02:59:41.448Z,14.02
2023-05-03T03:02:08.131Z,14.11
2023-05-03T03:04:34.588Z,14.36
2023-05-03T03:07:01.001Z,14.71
2023-05-03T03:09:27.428Z,14.82
2023-05-03T03:11:53.868Z,14.54
2023-05-03T03:14:20.284Z,14.94
2023-05-03T03:16:46.698Z,14.30
2023-05-03T03:19:13.099Z,15.93
2023-05-03T03:21:39.494Z,14.90
2023-05-03T03:24:05.956Z,14.15
2023-05-03T03:26:32.391Z,14.35
2023-05-03T03:28:58.846Z,14.02
2023-05-03T03:31:25.337Z,14.53
2023-05-03T03:33:51.770Z,14.40
2023-05-03T03:36:18.198Z,14.93
2023-05-03T03:38:44.632Z,14.83
2023-05-03T03:41:11.038Z,15.32
2023-05-03T03:43:37.434Z,15.28
2023-05-03T03:46:03.896Z,14.91
2023-05-03T03:48:30.377Z,14.05
2023-05-03T03:50:56.822Z,14.54
2023-05-03T03:53:23.273Z,14.02
2023-05-03T03:55:49.699Z,13.98
2023-05-03T03:58:16.084Z,15.07
2023-05-03T04:00:42.510Z,14.39
2023-05-03T04:03:09.057Z,14.33
2023-05-03T04:05:35.535Z,14.36
2023-05-03T04:08:01.993Z,14.49
2023-05-03T04:10:28.415Z,13.71
2023-05-03T04:12:54.825Z,13.31
2023-05-03T04:15:21.222Z,14.13
2023-05-03T04:17:47.645Z,13.51
2023-05-03T04:20:14.080Z,13.29
2023-05-03T04:22:40.528Z,13.52
2023-05-03T04:25:07.190Z,13.74
2023-05-03T04:27:33.603Z,13.40
2023-05-03T04:30:00.078Z,13.63
2023-05-03T04:32:26.588Z,13.62
2023-05-03T04:34:54.032Z,13.71
2023-05-03T04:37:20.510Z,13.23
2023-05-03T04:39:46.900Z,13.30
2023-05-03T04:42:13.332Z,13.32
2023-05-03T04:44:39.759Z,13.22
2023-05-03T04:47:06.173Z,13.93
2023-05-03T04:49:32.595Z,13.82
2023-05-03T04:51:59.062Z,13.64
2023-05-03T04:54:25.515Z,13.27
2023-05-03T04:56:51.927Z,12.55
2023-05-03T04:59:18.369Z,12.74
2023-05-03T05:01:44.931Z,12.98
2023-05-03T05:04:13.656Z,13.25
2023-05-03T05:06:42.233Z,12.53
2023-05-03T05:09:08.739Z,12.33
2023-05-03T05:11:35.168Z,12.55
2023-05-03T05:14:01.597Z,12.26
2023-05-03T05:16:27.984Z,12.32
2023-05-03T05:18:54.675Z,14.02
2023-05-03T05:21:23.177Z,81.23
2023-05-03T05:23:49.742Z,99.10
2023-05-03T05:26:16.156Z,61.34
2023-05-03T05:28:42.576Z,18.12
2023-05-03T05:31:09.031Z,13.93
2023-05-03T05:33:35.487Z,13.03
2023-05-03T05:36:02.105Z,12.63
2023-05-03T05:38:28.680Z,12.30
2023-05-03T05:40:55.074Z,12.22
2023-05-03T05:43:21.481Z,12.38
2023-05-03T05:45:47.913Z,12.09
2023-05-03T05:48:14.364Z,12.51
2023-05-03T05:50:40.781Z,11.95
2023-05-03T05:53:07.432Z,12.13
2023-05-03T05:55:42.823Z,12.01
2023-05-03T05:58:09.492Z,12.18
2023-05-03T06:00:35.899Z,12.25
2023-05-03T06:03:02.386Z,12.16
2023-05-03T06:05:29.028Z,12.23
2023-05-03T06:07:55.578Z,11.62
2023-05-03T06:10:21.983Z,12.16
2023-05-03T06:12:48.369Z,12.06
2023-05-03T06:15:14.840Z,11.30
2023-05-03T06:17:41.514Z,11.67
2023-05-03T06:20:10.808Z,11.60
2023-05-03T06:22:37.271Z,11.54
2023-05-03T06:25:03.974Z,11.52
2023-05-03T06:27:33.643Z,11.92
2023-05-03T06:30:02.635Z,12.62
2023-05-03T06:32:29.288Z,12.37
2023-05-03T06:34:55.768Z,11.82
2023-05-03T06:37:22.213Z,12.39
2023-05-03T06:39:48.641Z,11.94
2023-05-03T06:42:15.092Z,12.64
2023-05-03T06:44:41.578Z,12.06
2023-05-03T06:47:08.314Z,12.57
2023-05-03T06:49:35.159Z,12.68
2023-05-03T06:52:02.733Z,11.98
2023-05-03T06:54:29.160Z,12.23
2023-05-03T06:57:03.095Z,12.06
2023-05-03T06:59:29.503Z,12.30
2023-05-03T07:01:55.944Z,12.22
2023-05-03T07:04:22.453Z,12.51
2023-05-03T07:09:28.581Z,11.94
2023-05-03T07:12:02.103Z,11.79
2023-05-03T07:14:28.575Z,11.58
2023-05-03T07:16:54.989Z,11.77
2023-05-03T07:19:21.413Z,11.62
2023-05-03T07:21:47.812Z,11.31
2023-05-03T07:24:14.274Z,11.26
2023-05-03T07:26:41.949Z,11.59
2023-05-03T07:29:09.699Z,11.06
2023-05-03T07:31:36.290Z,11.20
2023-05-03T07:34:03.769Z,11.06
2023-05-03T07:36:30.651Z,11.07
2023-05-03T07:38:58.764Z,10.93
2023-05-03T07:41:25.730Z,11.81
2023-05-03T07:43:54.089Z,11.58
2023-05-03T07:46:21.845Z,10.78
2023-05-03T07:48:49.295Z,11.17
2023-05-03T07:51:16.914Z,11.12
2023-05-03T07:53:44.458Z,11.21
2023-05-03T07:56:11.040Z,11.10
2023-05-03T07:58:40.870Z,10.90
2023-05-03T08:01:09.247Z,10.96
2023-05-03T08:03:37.057Z,10.52
2023-05-03T08:06:04.456Z,10.64
2023-05-03T08:08:32.020Z,10.91
2023-05-03T08:10:59.588Z,10.70
2023-05-03T08:13:26.014Z,10.69
2023-05-03T08:15:52.535Z,10.94
2023-05-03T08:18:20.014Z,10.76
2023-05-03T08:20:48.163Z,11.28
2023-05-03T08:23:17.245Z,10.99
2023-05-03T08:25:44.204Z,10.91
2023-05-03T08:28:11.816Z,10.43
2023-05-03T08:30:38.258Z,11.02
2023-05-03T08:33:05.006Z,10.35
2023-05-03T08:35:31.466Z,9.94
2023-05-03T08:37:59.170Z,10.14
2023-05-03T08:40:27.774Z,10.00
2023-05-03T08:42:54.376Z,9.86
2023-05-03T08:45:20.795Z,8.63
2023-05-03T08:47:47.328Z,8.75
2023-05-03T08:50:13.863Z,9.02
2023-05-03T08:52:40.737Z,8.01
2023-05-03T08:55:08.317Z,8.13
2023-05-03T08:57:35.418Z,8.30
2023-05-03T09:00:02.178Z,7.55
2023-05-03T09:02:29.041Z,8.06
2023-05-03T09:04:56.666Z,8.18
2023-05-03T09:07:23.255Z,8.16
2023-05-03T09:09:49.836Z,8.14
2023-05-03T09:12:17.435Z,7.97
2023-05-03T09:14:44.032Z,7.83
2023-05-03T09:17:11.615Z,7.48
2023-05-03T09:19:38.189Z,7.10
2023-05-03T09:22:05.801Z,7.69
2023-05-03T09:24:32.389Z,7.65
2023-05-03T09:26:58.979Z,7.03
2023-05-03T09:29:25.404Z,7.15
2023-05-03T09:31:52.191Z,7.10
2023-05-03T09:34:20.741Z,6.76
2023-05-03T09:36:47.319Z,6.17
2023-05-03T09:39:13.916Z,6.57
2023-05-03T09:41:40.518Z,6.36
2023-05-03T09:44:08.097Z,6.25
2023-05-03T09:46:35.736Z,6.71
2023-05-03T09:49:03.314Z,6.45
2023-05-03T09:51:29.904Z,6.36
2023-05-03T09:53:56.489Z,5.86
2023-05-03T09:56:24.047Z,5.76
2023-05-03T09:58:50.634Z,5.54
2023-05-03T10:01:17.323Z,5.88
2023-05-03T10:03:45.028Z,6.05
2023-05-03T10:06:11.642Z,6.55
2023-05-03T10:08:38.165Z,6.28
2023-05-03T10:11:05.595Z,6.05
2023-05-03T10:13:32.056Z,6.27
2023-05-03T10:15:59.871Z,5.62
2023-05-03T10:18:27.452Z,5.79
2023-05-03T10:20:54.973Z,5.69
2023-05-03T10:23:21.571Z,5.82
2023-05-03T10:25:49.175Z,6.57
2023-05-03T10:28:15.733Z,6.67
2023-05-03T10:30:42.480Z,6.48
2023-05-03T10:33:08.973Z,6.80
2023-05-03T10:35:35.458Z,7.43
2023-05-03T10:38:02.124Z,7.49
2023-05-03T10:40:28.931Z,7.34
2023-05-03T10:42:56.597Z,7.07
2023-05-03T10:45:23.089Z,6.79
2023-05-03T10:47:49.851Z,6.66
2023-05-03T10:50:17.455Z,7.08
2023-05-03T10:52:44.985Z,7.09
2023-05-03T10:55:12.569Z,6.62
2023-05-03T10:57:40.594Z,6.88
2023-05-03T11:00:07.072Z,6.67
2023-05-03T11:02:34.399Z,6.68
2023-05-03T11:05:03.174Z,7.10
2023-05-03T11:07:30.742Z,6.96
2023-05-03T11:09:57.315Z,7.02
2023-05-03T11:12:24.911Z,7.26
2023-05-03T11:14:51.510Z,7.24
2023-05-03T11:17:20.108Z,7.38
2023-05-03T11:19:46.693Z,6.92
2023-05-03T11:22:14.300Z,6.62
2023-05-03T11:24:40.723Z,6.73
2023-05-03T11:27:07.755Z,6.93
2023-05-03T11:29:34.855Z,6.74
2023-05-03T11:32:01.280Z,6.30
2023-05-03T11:34:28.248Z,6.16
2023-05-03T11:36:56.154Z,5.76
2023-05-03T11:39:22.618Z,5.14
2023-05-03T11:41:50.009Z,5.44
2023-05-03T11:44:18.100Z,6.43
2023-05-03T11:46:45.252Z,6.08
2023-05-03T11:49:12.756Z,6.53
2023-05-03T11:51:40.360Z,6.27
2023-05-03T11:54:13.444Z,6.34
2023-05-03T11:56:52.443Z,6.52
2023-05-03T11:59:19.235Z,6.66
2023-05-03T12:01:46.830Z,6.37
2023-05-03T12:04:13.570Z,5.94
2023-05-03T12:06:42.830Z,5.51
2023-05-03T12:09:10.854Z,4.97
2023-05-03T12:11:39.847Z,5.13
2023-05-03T12:14:07.133Z,4.86
2023-05-03T12:16:34.314Z,5.13
2023-05-03T12:19:02.553Z,5.08
2023-05-03T12:21:31.852Z,4.73
2023-05-03T12:24:01.291Z,5.15
2023-05-03T12:26:28.179Z,4.99
2023-05-03T12:28:57.007Z,4.78
2023-05-03T12:31:24.196Z,4.60
2023-05-03T12:36:21.359Z,4.89
2023-05-03T12:41:21.745Z,4.38
2023-05-03T12:44:00.512Z,4.95
2023-05-03T12:46:34.691Z,4.39
2023-05-03T12:49:06.415Z,4.42
2023-05-03T12:51:33.958Z,4.87
2023-05-03T12:54:02.169Z,4.77
2023-05-03T12:56:32.648Z,4.96
2023-05-03T12:59:27.225Z,4.79
2023-05-03T13:02:57.744Z,4.43
2023-05-03T13:04:56.890Z,4.15
2023-05-03T13:07:28.178Z,4.22
2023-05-03T13:12:25.957Z,4.05
2023-05-03T13:14:53.570Z,4.25
2023-05-03T13:17:21.144Z,3.94
2023-05-03T13:19:47.711Z,3.90
2023-05-03T13:22:15.322Z,3.74
2023-05-03T13:24:44.905Z,3.95
2023-05-03T13:27:11.339Z,3.54
2023-05-03T13:29:37.775Z,4.02
2023-05-03T13:32:04.284Z,4.01
2023-05-03T13:34:30.717Z,4.06
2023-05-03T13:36:58.363Z,4.33
2023-05-03T13:39:24.798Z,4.38
2023-05-03T13:41:51.188Z,4.52
2023-05-03T13:44:17.675Z,4.22
2023-05-03T13:46:44.098Z,4.27
2023-05-03T13:49:10.582Z,4.17
2023-05-03T13:51:37.084Z,3.59
2023-05-03T13:54:03.544Z,3.64
2023-05-03T13:56:29.978Z,3.69
2023-05-03T13:58:56.442Z,4.07
2023-05-03T14:01:22.953Z,3.97
2023-05-03T14:03:49.656Z,3.64
2023-05-03T14:06:16.136Z,3.89
2023-05-03T14:08:42.562Z,3.85
2023-05-03T14:11:08.985Z,3.77
2023-05-03T14:13:47.457Z,3.55
2023-05-03T14:16:35.668Z,3.84
2023-05-03T14:19:06.193Z,3.75
2023-05-03T14:21:32.600Z,3.88
2023-05-03T14:23:58.963Z,3.73
2023-05-03T14:26:25.373Z,4.10
2023-05-03T14:28:51.776Z,4.63
2023-05-03T14:31:18.248Z,4.32
2023-05-03T14:33:44.768Z,4.29
2023-05-03T14:36:11.240Z,4.10
2023-05-03T14:38:37.647Z,4.21
2023-05-03T14:41:04.022Z,3.91
2023-05-03T14:43:30.462Z,3.69
2023-05-03T14:45:56.871Z,3.22
2023-05-03T14:48:23.264Z,3.86
2023-05-03T14:50:49.658Z,3.79
2023-05-03T14:53:16.077Z,4.14
2023-05-03T14:55:42.492Z,3.95
2023-05-03T14:58:08.922Z,4.04
2023-05-03T15:00:35.367Z,3.61
2023-05-03T15:03:01.994Z,3.12
2023-05-03T15:05:28.773Z,3.21
2023-05-03T15:07:55.201Z,3.05
2023-05-03T15:10:21.636Z,3.03
2023-05-03T15:12:48.130Z,3.00
2023-05-03T15:15:14.574Z,3.15
2023-05-03T15:17:41.183Z,3.20
2023-05-03T15:20:07.819Z,3.13
2023-05-03T15:22:36.742Z,3.02
2023-05-03T15:25:03.639Z,2.93
2023-05-03T15:27:30.119Z,2.98
2023-05-03T15:29:56.533Z,3.07
2023-05-03T15:32:23.018Z,2.88
2023-05-03T15:34:49.552Z,3.08
2023-05-03T15:37:15.976Z,3.06
2023-05-03T15:39:42.358Z,2.94
2023-05-03T15:42:08.744Z,3.01
2023-05-03T15:44:35.223Z,3.22
2023-05-03T15:47:01.656Z,2.95
2023-05-03T15:49:28.113Z,2.84
2023-05-03T15:51:55.795Z,3.22
2023-05-03T15:54:22.286Z,2.78
2023-05-03T15:56:49.584Z,3.11
2023-05-03T15:59:16.170Z,3.41
2023-05-03T16:01:43.616Z,3.12
2023-05-03T16:04:10.047Z,3.15
2023-05-03T16:06:36.869Z,3.05
2023-05-03T16:09:03.826Z,3.24
2023-05-03T16:11:30.591Z,3.12
2023-05-03T16:13:57.361Z,2.85
2023-05-03T16:16:24.066Z,3.07
2023-05-03T16:18:50.599Z,2.89
2023-05-03T16:21:17.544Z,3.10
2023-05-03T16:23:45.218Z,2.87
2023-05-03T16:26:11.831Z,3.12
2023-05-03T16:28:41.669Z,3.01
2023-05-03T16:31:08.890Z,3.15
2023-05-03T16:33:36.395Z,3.25
2023-05-03T16:36:04.919Z,3.15
2023-05-03T16:38:42.518Z,3.07
2023-05-03T16:41:12.540Z,3.28
2023-05-03T16:43:40.231Z,3.27
2023-05-03T16:46:06.671Z,2.95
2023-05-03T16:48:34.074Z,3.26
2023-05-03T16:51:00.863Z,3.18
2023-05-03T16:56:07.794Z,3.06
2023-05-03T16:58:34.637Z,3.03
2023-05-03T17:01:01.352Z,3.45
2023-05-03T17:03:28.504Z,3.14
2023-05-03T17:05:56.020Z,3.25
2023-05-03T17:08:30.956Z,3.22
2023-05-03T17:10:57.568Z,3.46
2023-05-03T17:13:24.002Z,3.39
2023-05-03T17:15:50.736Z,3.49
2023-05-03T17:18:17.218Z,3.38
2023-05-03T17:20:44.751Z,3.58
2023-05-03T17:23:11.391Z,3.33
2023-05-03T17:25:37.805Z,3.33
2023-05-03T17:28:04.222Z,3.31
2023-05-03T17:30:30.632Z,3.19
2023-05-03T17:32:57.094Z,3.25
2023-05-03T17:35:23.568Z,3.60
2023-05-03T17:37:49.971Z,3.47
2023-05-03T17:40:16.407Z,3.73
2023-05-03T17:42:42.834Z,4.00
2023-05-03T17:45:09.219Z,3.96
2023-05-03T17:47:35.644Z,4.03
2023-05-03T17:50:02.287Z,3.87
2023-05-03T17:52:28.786Z,3.96
2023-05-03T17:54:55.241Z,3.84
2023-05-03T17:57:21.659Z,3.88
2023-05-03T17:59:48.087Z,3.61
2023-05-03T18:02:14.511Z,3.77
2023-05-03T18:04:41.347Z,3.91
2023-05-03T18:07:07.830Z,4.22
2023-05-03T18:09:34.386Z,4.41
2023-05-03T18:12:00.785Z,4.55
2023-05-03T18:14:27.580Z,3.90
2023-05-03T18:16:55.389Z,4.05
2023-05-03T18:19:23.756Z,3.96
2023-05-03T18:21:50.188Z,4.13
2023-05-03T18:24:16.608Z,4.19
2023-05-03T18:26:43.021Z,4.10
2023-05-03T18:29:11.144Z,4.01
2023-05-03T18:31:37.642Z,4.08
2023-05-03T18:34:04.327Z,4.07
2023-05-03T18:36:30.909Z,4.27
2023-05-03T18:38:57.516Z,4.10
2023-05-03T18:41:24.070Z,4.10
2023-05-03T18:43:50.886Z,4.20
2023-05-03T18:46:17.392Z,4.00
2023-05-03T18:48:43.822Z,4.10
2023-05-03T18:51:10.220Z,4.19
2023-05-03T18:53:36.635Z,4.48
2023-05-03T18:56:03.593Z,4.35
2023-05-03T18:58:30.042Z,4.44
2023-05-03T19:00:56.811Z,4.57
2023-05-03T19:03:24.387Z,4.42
2023-05-03T19:05:50.810Z,4.25
2023-05-03T19:08:17.217Z,4.43
2023-05-03T19:10:43.646Z,4.56
2023-05-03T19:13:10.084Z,4.37
2023-05-03T19:15:36.488Z,4.47
2023-05-03T19:18:02.995Z,4.65
2023-05-03T19:20:29.420Z,4.36
2023-05-03T19:22:55.828Z,4.42
2023-05-03T19:25:22.255Z,4.65
2023-05-03T19:27:48.700Z,4.38
2023-05-03T19:30:15.100Z,4.42
2023-05-03T19:32:41.509Z,4.30
2023-05-03T19:35:09.008Z,4.62
2023-05-03T19:37:35.609Z,4.58
2023-05-03T19:40:02.261Z,4.49
2023-05-03T19:42:29.810Z,5.04
2023-05-03T19:44:56.387Z,4.71
2023-05-03T19:47:23.046Z,4.60
2023-05-03T19:49:50.585Z,4.85
2023-05-03T19:52:17.178Z,5.03
2023-05-03T19:54:43.577Z,4.76
2023-05-03T19:57:10.004Z,4.62
2023-05-03T19:59:36.408Z,4.90
2023-05-03T20:02:03.646Z,4.97
2023-05-03T20:04:31.137Z,5.34
2023-05-03T20:06:57.759Z,4.81
2023-05-03T20:09:25.302Z,4.84
2023-05-03T20:11:51.711Z,4.75
2023-05-03T20:14:18.091Z,4.67
2023-05-03T20:16:44.515Z,4.99
2023-05-03T20:19:11.053Z,5.19
2023-05-03T20:21:37.511Z,4.85
2023-05-03T20:24:04.020Z,4.98
2023-05-03T20:26:30.471Z,5.39
2023-05-03T20:28:57.114Z,5.16
2023-05-03T20:31:25.698Z,5.09
2023-05-03T20:33:54.665Z,5.23
2023-05-03T20:36:21.868Z,5.25
2023-05-03T20:38:49.454Z,5.29
2023-05-03T20:41:18.241Z,5.17
2023-05-03T20:43:45.660Z,5.64
2023-05-03T20:46:12.306Z,5.33
2023-05-03T20:48:40.825Z,5.87
2023-05-03T20:51:08.435Z,5.77
2023-05-03T20:53:35.043Z,5.66
2023-05-03T20:56:02.595Z,5.62
2023-05-03T20:58:30.197Z,5.47
2023-05-03T21:00:58.070Z,5.69
2023-05-03T21:03:27.015Z,5.68
2023-05-03T21:05:54.003Z,5.74
2023-05-03T21:08:21.597Z,5.43
2023-05-03T21:10:48.235Z,5.63
2023-05-03T21:13:15.826Z,5.78
2023-05-03T21:15:43.363Z,5.59
2023-05-03T21:18:11.078Z,5.72
2023-05-03T21:20:38.538Z,5.61
2023-05-03T21:23:04.986Z,5.50
2023-05-03T21:25:31.474Z,5.63
2023-05-03T21:27:58.370Z,5.73
2023-05-03T21:30:26.003Z,5.38
2023-05-03T21:32:52.712Z,6.15
2023-05-03T21:35:20.267Z,5.83
2023-05-03T21:37:46.728Z,5.59
2023-05-03T21:40:13.175Z,5.79
2023-05-03T21:42:39.629Z,5.75
2023-05-03T21:45:06.065Z,5.49
2023-05-03T21:47:32.512Z,5.83
2023-05-03T21:49:59.004Z,5.61
2023-05-03T21:52:25.465Z,5.76
2023-05-03T21:54:51.933Z,5.61
2023-05-03T21:57:19.077Z,5.67
2023-05-03T21:59:46.657Z,5.55
2023-05-03T22:02:13.309Z,5.80
2023-05-03T22:04:40.866Z,5.86
2023-05-03T22:07:08.560Z,5.76
2023-05-03T22:09:35.264Z,5.88
2023-05-03T22:12:19.193Z,5.77
2023-05-03T22:14:49.579Z,5.88
2023-05-03T22:17:17.155Z,5.88
2023-05-03T22:19:44.780Z,5.61
2023-05-03T22:22:12.369Z,5.96
2023-05-03T22:24:39.948Z,6.32
2023-05-03T22:27:08.531Z,5.78
2023-05-03T22:29:37.139Z,5.93
2023-05-03T22:32:03.865Z,6.25
2023-05-03T22:34:31.313Z,6.08
2023-05-03T22:36:58.920Z,6.27
2023-05-03T22:39:27.495Z,6.12
2023-05-03T22:41:56.230Z,6.27
2023-05-03T22:44:23.697Z,6.60
2023-05-03T22:46:51.288Z,6.14
2023-05-03T22:49:18.900Z,6.26
2023-05-03T22:51:45.469Z,6.33
2023-05-03T22:54:12.058Z,6.51
2023-05-03T22:56:41.032Z,6.46
2023-05-03T22:59:08.242Z,6.51
2023-05-03T23:01:36.862Z,6.53
2023-05-03T23:04:04.465Z,6.42
2023-05-03T23:06:33.013Z,6.81
2023-05-03T23:09:01.623Z,6.79
2023-05-03T23:11:29.233Z,7.30
2023-05-03T23:13:56.830Z,7.36
2023-05-03T23:16:25.778Z,7.45
2023-05-03T23:18:55.462Z,7.05
2023-05-03T23:21:22.614Z,7.09
2023-05-03T23:23:51.210Z,7.47
2023-05-03T23:26:19.814Z,7.86
2023-05-03T23:28:48.419Z,7.58
2023-05-03T23:31:16.037Z,7.90
2023-05-03T23:33:44.620Z,7.76
2023-05-03T23:36:13.206Z,8.02
2023-05-03T23:38:40.913Z,8.05
2023-05-03T23:41:08.432Z,7.84
2023-05-03T23:43:37.123Z,7.89
2023-05-03T23:46:04.744Z,8.32
2023-05-03T23:48:32.206Z,8.31
2023-05-03T23:50:59.800Z,7.96
2023-05-03T23:53:28.399Z,7.68
2023-05-03T23:55:55.034Z,7.80
2023-05-03T23:58:22.648Z,7.75
